Time;durP1;ratioP1;P1;durP2;ratioP2;P2;SDS_P1;SDS_P2;PMS_P1;PMS_P2;Temp;Humidity;BMP_temperature;BMP_pressure;BME280_temperature;BME280_humidity;BME280_pressure;Samples;Min_cycle;Max_cycle;Signal;HPM_P1;HPM_P2
2023/11/29 00:01:37;;;;;;;9.43;5.88;;;;;;;;;;5073741;28;20017;-26
2023/11/29 00:04:02;;;;;;;9.05;4.78;;;;;;;;;;5073229;28;20095;-26
2023/11/29 00:06:27;;;;;;;10.75;4.10;;;;;;;;;;5073443;28;20028;-26
2023/11/29 00:08:56;;;;;;;5.57;3.47;;;;;;;;;;5073527;28;20046;-26
2023/11/29 00:11:21;;;;;;;7.68;3.55;;;;;;;;;;5073434;28;20395;-28
2023/11/29 00:13:46;;;;;;;6.13;3.67;;;;;;;;;;5073166;28;20032;-27
2023/11/29 00:16:11;;;;;;;6.13;3.40;;;;;;;;;;5073740;28;20025;-27
2023/11/29 00:18:37;;;;;;;11.00;4.13;;;;;;;;;;5072960;28;20327;-27
2023/11/29 00:21:02;;;;;;;6.60;4.00;;;;;;;;;;5073608;28;20061;-27
2023/11/29 00:23:28;;;;;;;8.00;3.63;;;;;;;;;;5073587;28;20047;-27
2023/11/29 00:25:53;;;;;;;9.15;4.22;;;;;;;;;;5073301;28;20067;-27
2023/11/29 00:28:18;;;;;;;6.67;3.40;;;;;;;;;;5072991;28;20020;-27
2023/11/29 00:30:43;;;;;;;7.33;3.20;;;;;;;;;;5073523;28;20261;-27
2023/11/29 00:33:08;;;;;;;5.73;2.80;;;;;;;;;;5073377;28;20349;-27
2023/11/29 00:35:34;;;;;;;5.60;3.25;;;;;;;;;;5073437;28;20274;-27
2023/11/29 00:37:59;;;;;;;11.68;3.55;;;;;;;;;;5072836;28;20099;-27
2023/11/29 00:40:24;;;;;;;7.03;2.80;;;;;;;;;;5073382;28;20041;-27
2023/11/29 00:42:49;;;;;;;5.53;3.20;;;;;;;;;;5071363;28;20270;-27
2023/11/29 00:45:15;;;;;;;11.13;3.97;;;;;;;;;;5075819;28;20028;-27
2023/11/29 00:47:40;;;;;;;6.65;3.60;;;;;;;;;;5076853;28;20032;-27
2023/11/29 00:50:06;;;;;;;9.75;3.65;;;;;;;;;;5076525;28;20016;-28
2023/11/29 00:52:31;;;;;;;7.40;3.88;;;;;;;;;;5077063;28;20048;-27
2023/11/29 00:54:56;;;;;;;7.03;3.40;;;;;;;;;;5076376;28;20043;-27
2023/11/29 00:57:21;;;;;;;7.85;3.42;;;;;;;;;;5076200;28;20053;-27
2023/11/29 00:59:47;;;;;;;7.72;3.33;;;;;;;;;;5076605;28;20021;-27
2023/11/29 01:02:12;;;;;;;8.23;3.65;;;;;;;;;;5076361;28;20488;-27
2023/11/29 01:04:37;;;;;;;6.15;3.50;;;;;;;;;;5076436;28;20103;-27
2023/11/29 01:07:03;;;;;;;9.95;3.25;;;;;;;;;;5075985;28;20026;-27
2023/11/29 01:09:28;;;;;;;8.68;3.42;;;;;;;;;;5076022;28;20102;-27
2023/11/29 01:11:53;;;;;;;6.43;3.30;;;;;;;;;;5075733;28;20040;-27
2023/11/29 01:14:18;;;;;;;6.95;2.80;;;;;;;;;;5073950;28;20302;-27
2023/11/29 01:16:43;;;;;;;6.60;2.53;;;;;;;;;;5073949;28;20051;-27
2023/11/29 01:19:08;;;;;;;10.17;3.13;;;;;;;;;;5073910;28;20746;-27
2023/11/29 01:21:38;;;;;;;6.70;2.53;;;;;;;;;;5074145;28;20254;-27
2023/11/29 01:24:03;;;;;;;4.25;2.40;;;;;;;;;;5074007;28;20267;-27
2023/11/29 01:26:29;;;;;;;8.70;2.55;;;;;;;;;;5074228;28;20024;-27
2023/11/29 01:28:54;;;;;;;7.22;2.60;;;;;;;;;;5075603;28;20024;-27
2023/11/29 01:31:19;;;;;;;6.77;2.40;;;;;;;;;;5076124;28;20017;-27
2023/11/29 01:33:44;;;;;;;4.15;1.90;;;;;;;;;;5075978;28;20278;-27
2023/11/29 01:36:10;;;;;;;6.28;1.95;;;;;;;;;;5075746;28;20491;-27
2023/11/29 01:38:35;;;;;;;8.15;1.73;;;;;;;;;;5076082;28;20052;-27
2023/11/29 01:41:01;;;;;;;6.18;1.90;;;;;;;;;;5075900;28;20016;-27
2023/11/29 01:43:26;;;;;;;3.88;1.50;;;;;;;;;;5075776;28;20019;-27
2023/11/29 01:45:51;;;;;;;5.57;1.30;;;;;;;;;;5074202;28;20052;-29
2023/11/29 01:48:16;;;;;;;4.55;1.10;;;;;;;;;;5076038;28;20021;-29
2023/11/29 01:50:42;;;;;;;6.97;1.40;;;;;;;;;;5075930;28;20024;-27
2023/11/29 01:53:07;;;;;;;4.57;0.98;;;;;;;;;;5074124;28;20032;-27
2023/11/29 01:55:34;;;;;;;4.32;0.90;;;;;;;;;;5075206;28;20069;-27
2023/11/29 01:57:59;;;;;;;6.03;1.10;;;;;;;;;;5075020;28;20105;-27
2023/11/29 02:00:24;;;;;;;5.15;0.85;;;;;;;;;;5075206;28;20024;-27
2023/11/29 02:02:49;;;;;;;3.92;1.00;;;;;;;;;;5075207;28;20525;-27
2023/11/29 02:05:14;;;;;;;3.72;1.10;;;;;;;;;;5075376;28;20095;-27
2023/11/29 02:07:40;;;;;;;6.85;1.20;;;;;;;;;;5075027;28;20032;-27
2023/11/29 02:10:05;;;;;;;7.20;1.30;;;;;;;;;;5074982;28;20059;-27
2023/11/29 02:12:34;;;;;;;2.25;1.15;;;;;;;;;;5074840;28;20050;-27
2023/11/29 02:14:59;;;;;;;4.35;1.17;;;;;;;;;;5075441;28;20016;-27
2023/11/29 02:17:24;;;;;;;2.23;0.97;;;;;;;;;;5075368;28;20070;-27
2023/11/29 02:19:51;;;;;;;10.63;1.42;;;;;;;;;;5074798;28;20809;-27
2023/11/29 02:22:16;;;;;;;8.52;1.55;;;;;;;;;;5075085;28;20020;-27
2023/11/29 02:24:42;;;;;;;4.13;1.23;;;;;;;;;;5074828;28;20371;-27
2023/11/29 02:27:08;;;;;;;7.13;1.35;;;;;;;;;;5075223;28;20070;-27
2023/11/29 02:29:33;;;;;;;6.03;1.08;;;;;;;;;;5074914;28;20514;-27
2023/11/29 02:31:58;;;;;;;5.47;1.30;;;;;;;;;;5075197;28;20024;-27
2023/11/29 02:34:24;;;;;;;5.72;1.27;;;;;;;;;;5074491;28;20281;-27
2023/11/29 02:36:49;;;;;;;7.20;1.17;;;;;;;;;;5074424;28;20028;-27
2023/11/29 02:39:14;;;;;;;6.33;1.57;;;;;;;;;;5074471;28;20012;-27
2023/11/29 02:41:39;;;;;;;7.45;1.48;;;;;;;;;;5074702;28;20298;-26
2023/11/29 02:44:04;;;;;;;7.13;1.33;;;;;;;;;;5074422;28;20456;-27
2023/11/29 02:46:30;;;;;;;6.35;1.40;;;;;;;;;;5074561;28;20287;-27
2023/11/29 02:48:57;;;;;;;8.85;1.55;;;;;;;;;;5074820;28;20016;-27
2023/11/29 02:51:22;;;;;;;6.47;1.42;;;;;;;;;;5074495;28;20424;-26
2023/11/29 02:53:47;;;;;;;6.10;1.60;;;;;;;;;;5074196;28;20028;-27
2023/11/29 02:56:12;;;;;;;5.00;1.23;;;;;;;;;;5074199;28;20290;-27
2023/11/29 02:58:37;;;;;;;5.72;1.10;;;;;;;;;;5073830;28;20098;-27
2023/11/29 03:01:03;;;;;;;4.03;0.95;;;;;;;;;;5074331;28;20367;-27
2023/11/29 03:03:28;;;;;;;6.05;1.13;;;;;;;;;;5074554;28;20467;-27
2023/11/29 03:05:53;;;;;;;5.83;1.40;;;;;;;;;;5073998;28;20426;-27
2023/11/29 03:08:18;;;;;;;6.57;1.20;;;;;;;;;;5074094;28;20247;-27
2023/11/29 03:10:44;;;;;;;4.05;0.90;;;;;;;;;;5073835;28;20320;-27
2023/11/29 03:13:09;;;;;;;4.82;1.23;;;;;;;;;;5073813;28;20028;-27
2023/11/29 03:15:34;;;;;;;5.70;1.33;;;;;;;;;;5073818;28;20036;-26
2023/11/29 03:17:59;;;;;;;6.50;1.23;;;;;;;;;;5074270;28;20310;-27
2023/11/29 03:20:24;;;;;;;11.77;1.63;;;;;;;;;;5074052;28;20629;-27
2023/11/29 03:22:49;;;;;;;8.17;1.20;;;;;;;;;;5074293;28;20027;-27
2023/11/29 03:25:14;;;;;;;3.57;0.93;;;;;;;;;;5073681;28;20364;-27
2023/11/29 03:27:40;;;;;;;13.60;1.60;;;;;;;;;;5074228;28;20258;-27
2023/11/29 03:30:05;;;;;;;12.00;1.60;;;;;;;;;;5073614;28;20251;-27
2023/11/29 03:32:30;;;;;;;6.45;1.15;;;;;;;;;;5073857;28;20263;-27
2023/11/29 03:34:55;;;;;;;11.13;1.50;;;;;;;;;;5074093;28;20069;-27
2023/11/29 03:37:21;;;;;;;8.10;1.52;;;;;;;;;;5073449;28;20621;-27
2023/11/29 03:39:46;;;;;;;5.80;1.52;;;;;;;;;;5073990;28;20024;-27
2023/11/29 03:42:11;;;;;;;7.80;1.70;;;;;;;;;;5073475;28;20066;-27
2023/11/29 03:44:36;;;;;;;5.78;1.48;;;;;;;;;;5073671;28;20059;-27
2023/11/29 03:47:01;;;;;;;6.90;1.70;;;;;;;;;;5073627;28;20418;-27
2023/11/29 03:49:27;;;;;;;6.00;1.90;;;;;;;;;;5072068;28;20021;-27
2023/11/29 03:51:52;;;;;;;3.85;1.23;;;;;;;;;;5073584;28;20020;-27
2023/11/29 03:54:17;;;;;;;6.30;1.50;;;;;;;;;;5073248;28;20048;-27
2023/11/29 03:56:42;;;;;;;9.73;2.13;;;;;;;;;;5073502;28;20251;-27
2023/11/29 03:59:07;;;;;;;8.23;1.50;;;;;;;;;;5073828;28;20262;-27
2023/11/29 04:01:33;;;;;;;5.90;1.50;;;;;;;;;;5073332;28;20614;-27
2023/11/29 04:03:58;;;;;;;9.68;1.60;;;;;;;;;;5074267;28;20012;-27
2023/11/29 04:06:27;;;;;;;6.32;1.70;;;;;;;;;;5073233;28;20031;-27
2023/11/29 04:08:53;;;;;;;5.53;1.40;;;;;;;;;;5073523;28;20028;-27
2023/11/29 04:11:18;;;;;;;7.45;1.30;;;;;;;;;;5073072;28;20130;-27
2023/11/29 04:13:43;;;;;;;7.80;1.10;;;;;;;;;;5073185;28;20060;-27
2023/11/29 04:16:18;;;;;;;6.93;1.27;;;;;;;;;;5073168;28;20251;-27
2023/11/29 04:18:43;;;;;;;9.40;1.35;;;;;;;;;;5074218;28;20266;-27
2023/11/29 04:21:08;;;;;;;4.80;1.20;;;;;;;;;;5077690;28;20004;-27
2023/11/29 04:23:33;;;;;;;4.65;1.23;;;;;;;;;;5077615;28;20247;-27
2023/11/29 04:25:58;;;;;;;9.15;1.48;;;;;;;;;;5077587;28;20028;-27
2023/11/29 04:28:23;;;;;;;7.27;1.17;;;;;;;;;;5077244;28;20100;-27
2023/11/29 04:30:49;;;;;;;8.20;1.60;;;;;;;;;;5077570;28;20254;-27
2023/11/29 04:33:15;;;;;;;8.85;1.60;;;;;;;;;;5077194;28;20024;-27
2023/11/29 04:35:40;;;;;;;8.18;1.40;;;;;;;;;;5076843;28;20028;-27
2023/11/29 04:38:05;;;;;;;8.67;1.57;;;;;;;;;;5076775;28;20048;-27
2023/11/29 04:40:30;;;;;;;7.80;1.70;;;;;;;;;;5077581;28;20262;-27
2023/11/29 04:42:55;;;;;;;11.23;1.90;;;;;;;;;;5077249;28;20050;-27
2023/11/29 04:45:20;;;;;;;7.60;1.50;;;;;;;;;;5076664;28;20651;-27
2023/11/29 04:47:46;;;;;;;7.50;1.50;;;;;;;;;;5077236;28;20338;-27
2023/11/29 04:50:11;;;;;;;8.13;1.58;;;;;;;;;;5076624;28;20786;-27
2023/11/29 04:52:36;;;;;;;5.50;1.65;;;;;;;;;;5076784;28;20017;-27
2023/11/29 04:55:02;;;;;;;6.38;0.95;;;;;;;;;;5076793;28;20065;-27
2023/11/29 04:57:27;;;;;;;9.95;1.50;;;;;;;;;;5076347;28;20093;-27
2023/11/29 04:59:52;;;;;;;15.50;1.38;;;;;;;;;;5077025;28;20371;-27
2023/11/29 05:02:17;;;;;;;6.93;1.05;;;;;;;;;;5076643;28;20021;-27
2023/11/29 05:04:42;;;;;;;12.77;1.20;;;;;;;;;;5076624;28;20502;-27
2023/11/29 05:07:08;;;;;;;5.28;0.90;;;;;;;;;;5076568;28;20020;-27
2023/11/29 05:09:33;;;;;;;3.70;0.90;;;;;;;;;;5076484;28;20031;-26
2023/11/29 05:11:58;;;;;;;6.03;1.07;;;;;;;;;;5074913;28;20016;-26
2023/11/29 05:14:24;;;;;;;6.15;0.75;;;;;;;;;;5076380;28;20274;-26
2023/11/29 05:16:49;;;;;;;3.42;0.85;;;;;;;;;;5076293;28;20352;-26
2023/11/29 05:19:15;;;;;;;6.77;1.00;;;;;;;;;;5076087;28;20103;-26
2023/11/29 05:21:40;;;;;;;13.43;1.00;;;;;;;;;;5076546;28;20301;-26
2023/11/29 05:24:05;;;;;;;8.40;0.98;;;;;;;;;;5076488;28;20021;-26
2023/11/29 05:26:31;;;;;;;7.05;0.85;;;;;;;;;;5075902;28;20013;-27
2023/11/29 05:28:56;;;;;;;3.95;0.75;;;;;;;;;;5075767;28;20512;-26
2023/11/29 05:31:21;;;;;;;9.88;0.82;;;;;;;;;;5075648;28;20027;-27
2023/11/29 05:33:48;;;;;;;8.77;1.73;;;;;;;;;;5075786;28;20033;-26
2023/11/29 05:36:14;;;;;;;3.65;0.52;;;;;;;;;;5075764;28;20016;-26
2023/11/29 05:38:39;;;;;;;8.63;0.90;;;;;;;;;;5075803;28;20021;-26
2023/11/29 05:41:05;;;;;;;6.63;1.13;;;;;;;;;;5075641;28;20016;-26
2023/11/29 05:43:30;;;;;;;9.07;0.90;;;;;;;;;;5075569;28;20047;-26
2023/11/29 05:45:55;;;;;;;9.75;1.63;;;;;;;;;;5074273;28;20030;-26
2023/11/29 05:48:20;;;;;;;2.80;0.50;;;;;;;;;;5076044;28;20020;-26
2023/11/29 05:50:45;;;;;;;5.60;0.80;;;;;;;;;;5075629;28;20262;-26
2023/11/29 05:53:11;;;;;;;5.05;1.13;;;;;;;;;;5075389;28;20024;-27
2023/11/29 05:55:36;;;;;;;7.68;1.15;;;;;;;;;;5075587;28;20056;-26
2023/11/29 05:58:03;;;;;;;4.05;0.77;;;;;;;;;;5075186;28;20044;-26
2023/11/29 06:00:28;;;;;;;6.65;0.90;;;;;;;;;;5075550;28;20012;-26
2023/11/29 06:02:54;;;;;;;3.40;1.00;;;;;;;;;;5075739;28;20028;-27
2023/11/29 06:05:19;;;;;;;5.40;0.98;;;;;;;;;;5075423;28;20362;-26
2023/11/29 06:07:46;;;;;;;7.07;1.33;;;;;;;;;;5075117;28;20517;-26
2023/11/29 06:10:11;;;;;;;6.15;1.45;;;;;;;;;;5075337;28;20306;-27
2023/11/29 06:12:37;;;;;;;5.40;1.10;;;;;;;;;;5075086;28;20044;-26
2023/11/29 06:15:05;;;;;;;7.90;1.00;;;;;;;;;;5075169;28;20027;-26
2023/11/29 06:17:35;;;;;;;6.57;0.90;;;;;;;;;;5074800;28;20047;-27
2023/11/29 06:20:00;;;;;;;4.32;1.13;;;;;;;;;;5074851;28;20023;-26
2023/11/29 06:22:26;;;;;;;6.95;1.10;;;;;;;;;;5075321;28;20020;-26
2023/11/29 06:24:51;;;;;;;5.75;1.30;;;;;;;;;;5074695;28;20526;-27
2023/11/29 06:27:16;;;;;;;3.33;1.30;;;;;;;;;;5074666;28;20029;-26
2023/11/29 06:29:41;;;;;;;2.90;0.85;;;;;;;;;;5075138;28;20017;-27
2023/11/29 06:32:06;;;;;;;2.13;0.60;;;;;;;;;;5074621;28;20380;-26
2023/11/29 06:34:32;;;;;;;2.77;0.80;;;;;;;;;;5074630;28;20266;-26
2023/11/29 06:36:57;;;;;;;3.80;1.00;;;;;;;;;;5074433;28;20721;-26
2023/11/29 06:39:22;;;;;;;4.32;0.90;;;;;;;;;;5074481;28;20017;-26
2023/11/29 06:41:48;;;;;;;3.30;0.87;;;;;;;;;;5072091;28;20530;-26
2023/11/29 06:44:13;;;;;;;3.50;1.02;;;;;;;;;;5072498;28;20301;-26
2023/11/29 06:46:39;;;;;;;4.10;0.93;;;;;;;;;;5071755;28;20409;-26
2023/11/29 06:49:05;;;;;;;4.68;1.10;;;;;;;;;;5073259;28;20074;-26
2023/11/29 06:51:30;;;;;;;4.78;1.20;;;;;;;;;;5073465;28;20070;-26
2023/11/29 06:53:55;;;;;;;6.17;1.30;;;;;;;;;;5073295;28;20521;-26
2023/11/29 06:56:20;;;;;;;3.27;1.10;;;;;;;;;;5073785;28;20353;-26
2023/11/29 06:58:45;;;;;;;8.40;1.60;;;;;;;;;;5073803;28;20294;-31
2023/11/29 07:01:11;;;;;;;7.27;1.20;;;;;;;;;;5074621;28;20250;-26
2023/11/29 07:03:36;;;;;;;3.80;1.02;;;;;;;;;;5073957;28;20247;-26
2023/11/29 07:06:01;;;;;;;5.67;1.17;;;;;;;;;;5073995;28;20486;-26
2023/11/29 07:08:26;;;;;;;5.82;1.63;;;;;;;;;;5074425;28;20300;-26
2023/11/29 07:10:52;;;;;;;4.85;1.42;;;;;;;;;;5074125;28;20460;-26
2023/11/29 07:13:17;;;;;;;5.10;1.38;;;;;;;;;;5073958;28;20103;-26
2023/11/29 07:15:42;;;;;;;8.82;1.40;;;;;;;;;;5073793;28;20024;-26
2023/11/29 07:18:07;;;;;;;6.73;1.97;;;;;;;;;;5073680;28;20027;-26
2023/11/29 07:20:32;;;;;;;5.57;1.30;;;;;;;;;;5073705;28;20275;-26
2023/11/29 07:22:58;;;;;;;10.00;1.50;;;;;;;;;;5074316;28;20099;-26
2023/11/29 07:25:23;;;;;;;10.18;1.88;;;;;;;;;;5073847;28;20456;-26
2023/11/29 07:27:48;;;;;;;8.15;2.33;;;;;;;;;;5073775;28;20452;-26
2023/11/29 07:30:14;;;;;;;7.88;1.90;;;;;;;;;;5074310;28;20056;-26
2023/11/29 07:32:39;;;;;;;9.27;2.35;;;;;;;;;;5073716;28;20547;-27
2023/11/29 07:35:05;;;;;;;7.97;2.08;;;;;;;;;;5073676;28;20360;-26
2023/11/29 07:37:30;;;;;;;9.07;2.40;;;;;;;;;;5074087;28;20058;-26
2023/11/29 07:39:55;;;;;;;7.78;2.50;;;;;;;;;;5074132;28;20437;-27
2023/11/29 07:42:21;;;;;;;5.47;1.63;;;;;;;;;;5073546;28;20024;-26
2023/11/29 07:44:46;;;;;;;10.63;2.10;;;;;;;;;;5073780;28;20019;-26
2023/11/29 07:47:11;;;;;;;5.83;1.60;;;;;;;;;;5074139;28;20024;-26
2023/11/29 07:49:36;;;;;;;10.43;1.75;;;;;;;;;;5073747;28;20402;-30
2023/11/29 07:52:02;;;;;;;7.95;1.75;;;;;;;;;;5074009;28;20025;-26
2023/11/29 07:54:28;;;;;;;7.80;1.90;;;;;;;;;;5073531;28;20467;-27
2023/11/29 07:56:53;;;;;;;7.65;2.10;;;;;;;;;;5071901;28;20026;-27
2023/11/29 07:59:18;;;;;;;9.18;2.50;;;;;;;;;;5073261;28;20025;-27
2023/11/29 08:01:44;;;;;;;7.13;2.00;;;;;;;;;;5073977;28;20066;-27
2023/11/29 08:04:09;;;;;;;9.05;2.30;;;;;;;;;;5073399;28;20262;-27
2023/11/29 08:06:34;;;;;;;6.18;1.95;;;;;;;;;;5072177;28;20015;-27
2023/11/29 08:09:00;;;;;;;7.82;2.40;;;;;;;;;;5073331;28;20028;-27
2023/11/29 08:11:25;;;;;;;8.65;2.45;;;;;;;;;;5071987;28;20047;-27
2023/11/29 08:13:50;;;;;;;7.88;2.58;;;;;;;;;;5073283;28;20209;-27
2023/11/29 08:16:16;;;;;;;9.38;2.78;;;;;;;;;;5073485;28;20070;-28
2023/11/29 08:18:41;;;;;;;6.20;2.13;;;;;;;;;;5073208;28;20074;-28
2023/11/29 08:21:06;;;;;;;8.38;2.47;;;;;;;;;;5071938;28;20581;-27
2023/11/29 08:23:32;;;;;;;9.18;2.42;;;;;;;;;;5073817;28;20091;-27
2023/11/29 08:25:57;;;;;;;9.48;2.50;;;;;;;;;;5071881;28;20112;-28
2023/11/29 08:28:22;;;;;;;6.43;2.40;;;;;;;;;;5073524;28;20470;-27
2023/11/29 08:30:48;;;;;;;8.20;2.40;;;;;;;;;;5073716;28;20055;-28
2023/11/29 08:33:13;;;;;;;9.93;2.20;;;;;;;;;;5073110;28;20032;-28
2023/11/29 08:35:39;;;;;;;7.15;2.38;;;;;;;;;;5073341;28;20016;-27
2023/11/29 08:38:04;;;;;;;10.52;2.60;;;;;;;;;;5073297;28;20074;-28
2023/11/29 08:40:29;;;;;;;11.30;2.80;;;;;;;;;;5073326;28;20016;-27
2023/11/29 08:42:55;;;;;;;6.60;2.63;;;;;;;;;;5073303;28;20016;-27
2023/11/29 08:45:20;;;;;;;7.32;2.40;;;;;;;;;;5071842;28;20016;-27
2023/11/29 08:47:45;;;;;;;6.82;2.53;;;;;;;;;;5071753;28;20111;-27
2023/11/29 08:50:10;;;;;;;8.27;2.35;;;;;;;;;;5072938;28;20071;-27
2023/11/29 08:52:36;;;;;;;10.70;2.10;;;;;;;;;;5072871;28;20430;-27
2023/11/29 08:55:02;;;;;;;4.50;1.48;;;;;;;;;;5072930;28;20055;-27
2023/11/29 08:57:29;;;;;;;6.05;1.80;;;;;;;;;;5072747;28;20089;-27
2023/11/29 08:59:55;;;;;;;6.07;1.63;;;;;;;;;;5073170;28;20153;-27
2023/11/29 09:02:22;;;;;;;2.47;1.25;;;;;;;;;;5072832;28;20020;-27
2023/11/29 09:04:47;;;;;;;6.05;1.52;;;;;;;;;;5074128;28;20009;-27
2023/11/29 09:07:12;;;;;;;5.22;1.60;;;;;;;;;;5076439;28;20482;-27
2023/11/29 09:09:39;;;;;;;4.05;1.50;;;;;;;;;;5076603;28;20460;-27
2023/11/29 09:12:05;;;;;;;5.15;1.48;;;;;;;;;;5076282;28;20031;-28
2023/11/29 09:14:30;;;;;;;5.53;1.45;;;;;;;;;;5076374;28;20455;-27
2023/11/29 09:16:56;;;;;;;3.33;1.60;;;;;;;;;;5074884;28;20478;-26
2023/11/29 09:19:22;;;;;;;4.88;1.60;;;;;;;;;;5074957;28;20092;-27
2023/11/29 09:21:47;;;;;;;5.85;2.05;;;;;;;;;;5076164;28;20044;-27
2023/11/29 09:24:12;;;;;;;5.95;1.80;;;;;;;;;;5075745;28;20044;-26
2023/11/29 09:26:38;;;;;;;6.68;1.92;;;;;;;;;;5075794;28;20100;-27
2023/11/29 09:29:03;;;;;;;7.37;1.70;;;;;;;;;;5075487;28;20021;-27
2023/11/29 09:31:28;;;;;;;4.50;1.50;;;;;;;;;;5074135;28;20302;-27
2023/11/29 09:33:54;;;;;;;3.17;1.25;;;;;;;;;;5075513;28;20024;-27
2023/11/29 09:36:20;;;;;;;3.90;1.30;;;;;;;;;;5075203;28;20031;-27
2023/11/29 09:38:45;;;;;;;5.15;1.48;;;;;;;;;;5075742;28;20104;-27
2023/11/29 09:41:11;;;;;;;4.10;1.33;;;;;;;;;;5076098;28;20020;-27
2023/11/29 09:43:38;;;;;;;2.95;1.30;;;;;;;;;;5075898;28;20081;-26
2023/11/29 09:46:03;;;;;;;2.65;0.90;;;;;;;;;;5075858;28;20091;-26
2023/11/29 09:48:28;;;;;;;5.28;1.60;;;;;;;;;;5076140;28;20060;-27
2023/11/29 09:50:54;;;;;;;4.47;1.20;;;;;;;;;;5075513;28;20503;-26
2023/11/29 09:53:19;;;;;;;4.45;1.42;;;;;;;;;;5075495;28;20021;-26
2023/11/29 09:55:44;;;;;;;6.90;1.50;;;;;;;;;;5075695;28;20498;-26
2023/11/29 09:58:10;;;;;;;4.03;1.35;;;;;;;;;;5073884;28;20303;-26
2023/11/29 10:00:35;;;;;;;5.22;1.40;;;;;;;;;;5075572;28;20460;-26
2023/11/29 10:03:10;;;;;;;5.80;1.10;;;;;;;;;;5075206;28;20403;-27
2023/11/29 10:05:35;;;;;;;6.07;1.40;;;;;;;;;;5075762;28;20027;-26
2023/11/29 10:08:00;;;;;;;3.67;1.27;;;;;;;;;;5075159;28;20091;-26
2023/11/29 10:10:25;;;;;;;8.30;1.58;;;;;;;;;;5075173;28;20263;-27
2023/11/29 10:12:50;;;;;;;4.97;1.30;;;;;;;;;;5075015;28;20025;-27
2023/11/29 10:15:16;;;;;;;3.33;1.40;;;;;;;;;;5075594;28;20025;-26
2023/11/29 10:17:41;;;;;;;4.38;1.33;;;;;;;;;;5075201;28;20282;-26
2023/11/29 10:20:07;;;;;;;2.83;1.25;;;;;;;;;;5073734;28;20024;-27
2023/11/29 10:22:34;;;;;;;3.97;1.25;;;;;;;;;;5075193;28;20024;-27
2023/11/29 10:25:12;;;;;;;5.15;1.38;;;;;;;;;;5074832;28;20021;-27
2023/11/29 10:27:39;;;;;;;4.70;1.40;;;;;;;;;;5075120;28;20039;-26
2023/11/29 10:30:05;;;;;;;2.75;1.45;;;;;;;;;;5074808;28;20030;-26
2023/11/29 10:32:31;;;;;;;5.93;1.55;;;;;;;;;;5075784;28;20108;-26
2023/11/29 10:34:57;;;;;;;3.03;1.52;;;;;;;;;;5074610;28;20051;-27
2023/11/29 10:37:22;;;;;;;5.80;1.50;;;;;;;;;;5074523;28;20036;-27
2023/11/29 10:39:50;;;;;;;3.47;1.20;;;;;;;;;;5074462;28;20020;-27
2023/11/29 10:42:15;;;;;;;2.33;1.20;;;;;;;;;;5074387;28;20019;-26
2023/11/29 10:44:43;;;;;;;4.10;1.63;;;;;;;;;;5074655;28;20016;-26
2023/11/29 10:47:26;;;;;;;4.57;1.40;;;;;;;;;;5075199;28;20013;-27
2023/11/29 10:50:06;;;;;;;6.80;1.58;;;;;;;;;;5074846;28;20020;-26
2023/11/29 10:52:33;;;;;;;4.55;1.52;;;;;;;;;;5074702;28;20013;-26
2023/11/29 10:54:58;;;;;;;3.47;1.60;;;;;;;;;;5074451;28;20031;-27
2023/11/29 10:57:26;;;;;;;3.35;1.90;;;;;;;;;;5074042;28;20486;-26
2023/11/29 10:59:57;;;;;;;7.38;1.73;;;;;;;;;;5074018;28;20120;-26
2023/11/29 11:02:26;;;;;;;9.63;1.77;;;;;;;;;;5074118;28;20020;-26
2023/11/29 11:05:01;;;;;;;4.43;1.90;;;;;;;;;;5074005;28;20047;-26
2023/11/29 11:07:39;;;;;;;5.32;2.00;;;;;;;;;;5073953;28;20028;-27
2023/11/29 11:10:07;;;;;;;7.05;2.38;;;;;;;;;;5074305;28;20319;-26
2023/11/29 11:12:33;;;;;;;8.07;1.80;;;;;;;;;;5073607;28;20008;-27
2023/11/29 11:15:01;;;;;;;4.55;1.73;;;;;;;;;;5074041;28;20066;-27
2023/11/29 11:17:27;;;;;;;28.80;2.95;;;;;;;;;;5074028;28;20482;-27
2023/11/29 11:19:52;;;;;;;4.07;1.70;;;;;;;;;;5073961;28;20016;-26
2023/11/29 11:22:23;;;;;;;10.60;5.65;;;;;;;;;;5073624;28;20017;-27
2023/11/29 11:25:03;;;;;;;6.32;2.13;;;;;;;;;;5073933;28;20460;-26
2023/11/29 11:27:35;;;;;;;4.30;2.10;;;;;;;;;;5073435;28;20463;-26
2023/11/29 11:30:21;;;;;;;5.38;2.05;;;;;;;;;;5073941;28;20028;-29
2023/11/29 11:32:49;;;;;;;9.10;2.40;;;;;;;;;;5073611;28;20051;-32
2023/11/29 11:35:21;;;;;;;6.05;2.03;;;;;;;;;;5073596;28;20024;-27
2023/11/29 11:37:49;;;;;;;5.35;2.80;;;;;;;;;;5073653;28;20140;-27
2023/11/29 11:40:15;;;;;;;5.35;2.22;;;;;;;;;;5073681;28;20379;-26
2023/11/29 11:42:41;;;;;;;7.70;2.55;;;;;;;;;;5073263;28;20027;-27
2023/11/29 11:45:09;;;;;;;8.18;2.35;;;;;;;;;;5073239;28;20019;-26
2023/11/29 11:47:38;;;;;;;6.88;2.35;;;;;;;;;;5073140;28;20037;-26
2023/11/29 11:50:04;;;;;;;6.57;2.65;;;;;;;;;;5073847;28;20105;-26
2023/11/29 11:52:29;;;;;;;4.60;2.20;;;;;;;;;;5073440;28;20020;-27
2023/11/29 11:54:54;;;;;;;5.07;2.78;;;;;;;;;;5073065;28;20103;-26
2023/11/29 11:57:20;;;;;;;13.60;5.17;;;;;;;;;;5073599;28;20108;-27
2023/11/29 11:59:45;;;;;;;12.60;9.27;;;;;;;;;;5073169;28;20774;-26
2023/11/29 12:02:10;;;;;;;7.00;3.37;;;;;;;;;;5073569;28;20044;-26
2023/11/29 12:04:35;;;;;;;8.50;2.20;;;;;;;;;;5073209;28;20263;-26
2023/11/29 12:07:02;;;;;;;5.68;2.88;;;;;;;;;;5073264;28;20012;-26
2023/11/29 12:09:28;;;;;;;5.93;2.13;;;;;;;;;;5073654;28;20019;-26
2023/11/29 12:12:14;;;;;;;9.43;6.32;;;;;;;;;;5073449;28;20479;-26
2023/11/29 12:14:39;;;;;;;5.22;2.42;;;;;;;;;;5072889;28;20024;-26
2023/11/29 12:17:06;;;;;;;8.20;2.00;;;;;;;;;;5073024;28;20093;-26
2023/11/29 12:19:31;;;;;;;6.47;2.17;;;;;;;;;;5073199;28;20111;-27
2023/11/29 12:21:57;;;;;;;4.90;1.90;;;;;;;;;;5073168;28;20479;-27
2023/11/29 12:24:22;;;;;;;3.28;1.58;;;;;;;;;;5073361;28;20013;-26
2023/11/29 12:26:47;;;;;;;4.00;1.87;;;;;;;;;;5073062;28;20472;-26
2023/11/29 12:29:13;;;;;;;4.10;2.00;;;;;;;;;;5073501;28;20341;-26
2023/11/29 12:31:38;;;;;;;3.13;1.70;;;;;;;;;;5072989;28;20741;-27
2023/11/29 12:34:04;;;;;;;10.18;5.32;;;;;;;;;;5073208;28;20032;-26
2023/11/29 12:36:29;;;;;;;4.40;2.10;;;;;;;;;;5072893;28;20108;-27
2023/11/29 12:38:55;;;;;;;4.63;2.63;;;;;;;;;;5072703;28;20103;-27
2023/11/29 12:41:20;;;;;;;5.80;2.07;;;;;;;;;;5076137;28;20481;-27
2023/11/29 12:43:45;;;;;;;3.85;1.50;;;;;;;;;;5076931;28;20259;-27
2023/11/29 12:46:10;;;;;;;1.27;0.98;;;;;;;;;;5076620;28;20027;-27
2023/11/29 12:48:35;;;;;;;4.60;1.70;;;;;;;;;;5076721;28;20099;-27
2023/11/29 12:51:00;;;;;;;3.27;1.63;;;;;;;;;;5076637;28;20259;-27
2023/11/29 12:53:26;;;;;;;3.27;1.60;;;;;;;;;;5076630;28;20032;-26
2023/11/29 12:55:51;;;;;;;3.90;1.67;;;;;;;;;;5076543;28;20251;-26
2023/11/29 12:58:16;;;;;;;8.57;3.83;;;;;;;;;;5076245;28;20349;-26
2023/11/29 13:00:45;;;;;;;7.15;4.18;;;;;;;;;;5076555;28;20070;-27
2023/11/29 13:03:10;;;;;;;7.57;5.20;;;;;;;;;;5076387;28;20016;-26
2023/11/29 13:05:35;;;;;;;4.23;2.10;;;;;;;;;;5076957;28;20012;-27
2023/11/29 13:08:00;;;;;;;3.63;1.90;;;;;;;;;;5076459;28;20345;-26
2023/11/29 13:10:25;;;;;;;4.72;1.90;;;;;;;;;;5076330;28;20251;-27
2023/11/29 13:12:50;;;;;;;5.10;2.00;;;;;;;;;;5076092;28;20024;-27
2023/11/29 13:15:16;;;;;;;3.75;2.05;;;;;;;;;;5076164;28;20300;-26
2023/11/29 13:17:41;;;;;;;5.85;2.00;;;;;;;;;;5076171;28;20016;-27
2023/11/29 13:20:08;;;;;;;5.60;2.13;;;;;;;;;;5076442;28;20012;-26
2023/11/29 13:22:33;;;;;;;4.78;2.00;;;;;;;;;;5076383;28;20463;-27
2023/11/29 13:24:58;;;;;;;3.37;1.90;;;;;;;;;;5076574;28;20016;-26
2023/11/29 13:27:23;;;;;;;5.13;1.95;;;;;;;;;;5076304;28;20349;-26
2023/11/29 13:29:49;;;;;;;5.13;2.30;;;;;;;;;;5076525;28;20027;-26
2023/11/29 13:32:14;;;;;;;3.43;1.97;;;;;;;;;;5074719;28;20765;-26
2023/11/29 13:34:40;;;;;;;4.90;2.10;;;;;;;;;;5076109;28;20263;-26
2023/11/29 13:37:05;;;;;;;3.60;1.90;;;;;;;;;;5074552;28;20078;-26
2023/11/29 13:39:31;;;;;;;3.88;1.88;;;;;;;;;;5076409;28;20021;-27
2023/11/29 13:41:56;;;;;;;2.45;1.70;;;;;;;;;;5076050;28;20025;-27
2023/11/29 13:44:24;;;;;;;2.85;1.75;;;;;;;;;;5076056;28;20359;-27
2023/11/29 13:46:49;;;;;;;2.50;1.60;;;;;;;;;;5075983;28;20028;-28
2023/11/29 13:49:15;;;;;;;4.35;1.80;;;;;;;;;;5075049;28;20368;-27
2023/11/29 13:51:40;;;;;;;6.65;2.10;;;;;;;;;;5075063;28;20061;-26
2023/11/29 13:54:06;;;;;;;3.67;2.38;;;;;;;;;;5074421;28;20028;-26
2023/11/29 13:56:32;;;;;;;6.88;3.28;;;;;;;;;;5075915;28;20055;-26
2023/11/29 13:59:00;;;;;;;3.10;2.00;;;;;;;;;;5073741;28;20076;-26
2023/11/29 14:01:25;;;;;;;3.25;2.00;;;;;;;;;;5074350;28;20269;-26
2023/11/29 14:03:51;;;;;;;5.72;2.00;;;;;;;;;;5074975;28;20008;-26
2023/11/29 14:06:17;;;;;;;2.47;1.38;;;;;;;;;;5074902;28;20095;-26
2023/11/29 14:08:42;;;;;;;4.13;1.50;;;;;;;;;;5074962;28;20028;-26
2023/11/29 14:11:07;;;;;;;3.00;1.50;;;;;;;;;;5075316;28;20029;-27
2023/11/29 14:13:33;;;;;;;2.30;1.30;;;;;;;;;;5074272;28;20017;-27
2023/11/29 14:15:58;;;;;;;4.90;2.90;;;;;;;;;;5073474;28;20021;-26
2023/11/29 14:18:24;;;;;;;3.55;1.88;;;;;;;;;;5075174;28;20278;-27
2023/11/29 14:20:49;;;;;;;5.37;2.20;;;;;;;;;;5074845;28;20017;-26
2023/11/29 14:23:14;;;;;;;4.13;2.00;;;;;;;;;;5075168;28;20263;-27
2023/11/29 14:25:39;;;;;;;3.07;1.73;;;;;;;;;;5074916;28;20467;-27
2023/11/29 14:28:04;;;;;;;3.03;1.50;;;;;;;;;;5075076;28;20263;-27
2023/11/29 14:30:30;;;;;;;7.00;2.30;;;;;;;;;;5074767;28;20290;-27
2023/11/29 14:32:55;;;;;;;24.00;12.70;;;;;;;;;;5074686;28;20055;-27
2023/11/29 14:35:20;;;;;;;6.57;3.97;;;;;;;;;;5074631;28;20262;-27